sensor_id;sensor_type;location;lat;lon;timestamp;temperature;humidity
9662;DHT22;24982;52.344;12.990;2023-04-03T00:00:58;4.20;99.90
9662;DHT22;24982;52.344;12.990;2023-04-03T00:04:00;4.20;99.90
9662;DHT22;24982;52.344;12.990;2023-04-03T00:07:02;4.10;99.90
9662;DHT22;24982;52.344;12.990;2023-04-03T00:10:05;4.10;99.90
9662;DHT22;24982;52.344;12.990;2023-04-03T00:13:09;4.10;99.90
9662;DHT22;24982;52.344;12.990;2023-04-03T00:16:11;4.10;99.90
9662;DHT22;24982;52.344;12.990;2023-04-03T00:19:14;4.10;99.90
9662;DHT22;24982;52.344;12.990;2023-04-03T00:22:15;4.10;99.90
9662;DHT22;24982;52.344;12.990;2023-04-03T00:25:17;4.10;99.90
9662;DHT22;24982;52.344;12.990;2023-04-03T00:28:21;4.10;99.90
9662;DHT22;24982;52.344;12.990;2023-04-03T00:31:23;4.10;99.90
9662;DHT22;24982;52.344;12.990;2023-04-03T00:34:25;4.10;99.90
9662;DHT22;24982;52.344;12.990;2023-04-03T00:37:27;4.10;99.90
9662;DHT22;24982;52.344;12.990;2023-04-03T00:40:33;4.10;99.90
9662;DHT22;24982;52.344;12.990;2023-04-03T00:43:37;4.10;99.90
9662;DHT22;24982;52.344;12.990;2023-04-03T00:46:39;4.10;99.90
9662;DHT22;24982;52.344;12.990;2023-04-03T00:49:41;4.00;99.90
9662;DHT22;24982;52.344;12.990;2023-04-03T00:52:44;4.00;99.90
9662;DHT22;24982;52.344;12.990;2023-04-03T00:55:50;4.00;99.90
9662;DHT22;24982;52.344;12.990;2023-04-03T00:58:55;4.00;99.90
9662;DHT22;24982;52.344;12.990;2023-04-03T01:02:00;4.00;99.90
9662;DHT22;24982;52.344;12.990;2023-04-03T01:05:02;4.00;99.90
9662;DHT22;24982;52.344;12.990;2023-04-03T01:11:08;4.00;99.90
9662;DHT22;24982;52.344;12.990;2023-04-03T01:14:12;4.00;99.90
9662;DHT22;24982;52.344;12.990;2023-04-03T01:20:49;3.90;99.90
9662;DHT22;24982;52.344;12.990;2023-04-03T01:23:57;3.90;99.90
9662;DHT22;24982;52.344;12.990;2023-04-03T01:27:03;3.90;99.90
9662;DHT22;24982;52.344;12.990;2023-04-03T01:30:09;3.90;99.90
9662;DHT22;24982;52.344;12.990;2023-04-03T01:33:13;3.90;99.90
9662;DHT22;24982;52.344;12.990;2023-04-03T01:36:17;3.90;99.90
9662;DHT22;24982;52.344;12.990;2023-04-03T01:54:34;3.60;99.90
9662;DHT22;24982;52.344;12.990;2023-04-03T01:57:36;3.60;99.90
9662;DHT22;24982;52.344;12.990;2023-04-03T02:00:38;3.40;99.90
9662;DHT22;24982;52.344;12.990;2023-04-03T02:06:44;3.20;99.90
9662;DHT22;24982;52.344;12.990;2023-04-03T02:12:48;3.30;99.90
9662;DHT22;24982;52.344;12.990;2023-04-03T02:24:59;3.10;99.90
9662;DHT22;24982;52.344;12.990;2023-04-03T03:01:36;2.90;99.90
9662;DHT22;24982;52.344;12.990;2023-04-03T03:04:39;2.90;99.90
9662;DHT22;24982;52.344;12.990;2023-04-03T03:07:41;2.80;99.90
9662;DHT22;24982;52.344;12.990;2023-04-03T03:10:44;2.70;99.90
9662;DHT22;24982;52.344;12.990;2023-04-03T03:13:46;2.70;99.90
9662;DHT22;24982;52.344;12.990;2023-04-03T03:19:52;2.60;99.90
9662;DHT22;24982;52.344;12.990;2023-04-03T03:22:54;2.80;99.90
9662;DHT22;24982;52.344;12.990;2023-04-03T03:25:58;2.50;99.90
9662;DHT22;24982;52.344;12.990;2023-04-03T03:29:00;2.50;99.90
9662;DHT22;24982;52.344;12.990;2023-04-03T03:32:04;2.80;99.90
9662;DHT22;24982;52.344;12.990;2023-04-03T03:47:20;2.30;99.90
9662;DHT22;24982;52.344;12.990;2023-04-03T03:50:24;2.60;99.90
9662;DHT22;24982;52.344;12.990;2023-04-03T03:53:26;2.60;99.90
9662;DHT22;24982;52.344;12.990;2023-04-03T03:56:34;2.50;99.90
9662;DHT22;24982;52.344;12.990;2023-04-03T03:59:36;2.60;99.90
9662;DHT22;24982;52.344;12.990;2023-04-03T04:02:39;2.50;99.90
9662;DHT22;24982;52.344;12.990;2023-04-03T04:05:43;2.30;99.90
9662;DHT22;24982;52.344;12.990;2023-04-03T04:08:45;2.50;99.90
9662;DHT22;24982;52.344;12.990;2023-04-03T04:11:48;2.40;99.90
9662;DHT22;24982;52.344;12.990;2023-04-03T04:14:51;2.50;99.90
9662;DHT22;24982;52.344;12.990;2023-04-03T04:17:53;2.40;99.90
9662;DHT22;24982;52.344;12.990;2023-04-03T04:20:58;2.40;99.90
9662;DHT22;24982;52.344;12.990;2023-04-03T04:24:00;2.40;99.90
9662;DHT22;24982;52.344;12.990;2023-04-03T04:27:02;2.40;99.90
9662;DHT22;24982;52.344;12.990;2023-04-03T04:30:07;2.50;99.90
9662;DHT22;24982;52.344;12.990;2023-04-03T04:33:10;2.40;99.90
9662;DHT22;24982;52.344;12.990;2023-04-03T04:36:14;2.30;99.90
9662;DHT22;24982;52.344;12.990;2023-04-03T04:39:18;2.30;99.90
9662;DHT22;24982;52.344;12.990;2023-04-03T04:48:26;2.30;99.90
9662;DHT22;24982;52.344;12.990;2023-04-03T04:51:29;2.30;99.90
9662;DHT22;24982;52.344;12.990;2023-04-03T04:54:32;2.30;99.90
9662;DHT22;24982;52.344;12.990;2023-04-03T04:57:34;2.30;99.90
9662;DHT22;24982;52.344;12.990;2023-04-03T05:00:41;2.30;99.90
9662;DHT22;24982;52.344;12.990;2023-04-03T05:03:50;2.20;99.90
9662;DHT22;24982;52.344;12.990;2023-04-03T05:06:54;2.20;99.90
9662;DHT22;24982;52.344;12.990;2023-04-03T05:10:00;2.30;99.90
9662;DHT22;24982;52.344;12.990;2023-04-03T05:13:04;2.30;99.90
9662;DHT22;24982;52.344;12.990;2023-04-03T05:16:06;2.20;99.90
9662;DHT22;24982;52.344;12.990;2023-04-03T05:22:15;2.20;99.90
9662;DHT22;24982;52.344;12.990;2023-04-03T05:25:17;2.20;99.90
9662;DHT22;24982;52.344;12.990;2023-04-03T05:28:19;2.30;99.90
9662;DHT22;24982;52.344;12.990;2023-04-03T05:31:21;2.30;99.90
9662;DHT22;24982;52.344;12.990;2023-04-03T05:34:24;2.30;99.90
9662;DHT22;24982;52.344;12.990;2023-04-03T05:37:29;2.30;99.90
9662;DHT22;24982;52.344;12.990;2023-04-03T05:40:32;2.40;99.90
9662;DHT22;24982;52.344;12.990;2023-04-03T05:43:34;2.40;99.90
9662;DHT22;24982;52.344;12.990;2023-04-03T05:46:38;2.40;99.90
9662;DHT22;24982;52.344;12.990;2023-04-03T05:49:43;2.50;99.90
9662;DHT22;24982;52.344;12.990;2023-04-03T05:52:51;2.60;99.90
9662;DHT22;24982;52.344;12.990;2023-04-03T05:55:54;2.50;99.90
9662;DHT22;24982;52.344;12.990;2023-04-03T05:58:56;2.60;99.90
9662;DHT22;24982;52.344;12.990;2023-04-03T06:01:59;2.80;99.90
9662;DHT22;24982;52.344;12.990;2023-04-03T06:05:02;2.70;99.90
9662;DHT22;24982;52.344;12.990;2023-04-03T06:08:05;2.70;99.90
9662;DHT22;24982;52.344;12.990;2023-04-03T06:11:07;2.80;99.90
9662;DHT22;24982;52.344;12.990;2023-04-03T06:14:11;2.80;99.90
9662;DHT22;24982;52.344;12.990;2023-04-03T06:17:13;3.00;99.90
9662;DHT22;24982;52.344;12.990;2023-04-03T06:20:16;3.00;99.90
9662;DHT22;24982;52.344;12.990;2023-04-03T06:23:20;3.10;99.90
9662;DHT22;24982;52.344;12.990;2023-04-03T06:26:22;3.20;99.90
9662;DHT22;24982;52.344;12.990;2023-04-03T06:29:24;3.20;99.90
9662;DHT22;24982;52.344;12.990;2023-04-03T06:32:26;3.30;99.90
9662;DHT22;24982;52.344;12.990;2023-04-03T06:35:28;3.30;99.90
9662;DHT22;24982;52.344;12.990;2023-04-03T06:38:33;3.40;99.90
9662;DHT22;24982;52.344;12.990;2023-04-03T06:41:35;3.50;99.90
9662;DHT22;24982;52.344;12.990;2023-04-03T06:44:37;3.60;99.90
9662;DHT22;24982;52.344;12.990;2023-04-03T06:47:40;3.50;99.90
9662;DHT22;24982;52.344;12.990;2023-04-03T06:50:42;3.60;99.90
9662;DHT22;24982;52.344;12.990;2023-04-03T06:53:45;3.10;99.90
9662;DHT22;24982;52.344;12.990;2023-04-03T06:56:48;3.70;99.90
9662;DHT22;24982;52.344;12.990;2023-04-03T06:59:51;3.80;99.90
9662;DHT22;24982;52.344;12.990;2023-04-03T07:02:53;3.90;99.90
9662;DHT22;24982;52.344;12.990;2023-04-03T07:05:57;3.90;99.90
9662;DHT22;24982;52.344;12.990;2023-04-03T07:09:00;3.90;99.90
9662;DHT22;24982;52.344;12.990;2023-04-03T07:12:03;4.00;99.90
9662;DHT22;24982;52.344;12.990;2023-04-03T07:15:06;4.00;99.90
9662;DHT22;24982;52.344;12.990;2023-04-03T07:18:08;4.10;99.90
9662;DHT22;24982;52.344;12.990;2023-04-03T07:24:14;4.50;99.90
9662;DHT22;24982;52.344;12.990;2023-04-03T07:36:24;7.60;99.90
9662;DHT22;24982;52.344;12.990;2023-04-03T07:39:28;7.80;99.90
9662;DHT22;24982;52.344;12.990;2023-04-03T07:42:30;8.00;99.90
9662;DHT22;24982;52.344;12.990;2023-04-03T07:45:34;8.30;99.90
9662;DHT22;24982;52.344;12.990;2023-04-03T07:48:36;8.70;99.90
9662;DHT22;24982;52.344;12.990;2023-04-03T07:51:38;9.00;99.90
9662;DHT22;24982;52.344;12.990;2023-04-03T07:54:42;9.20;99.90
9662;DHT22;24982;52.344;12.990;2023-04-03T07:57:44;9.10;99.90
9662;DHT22;24982;52.344;12.990;2023-04-03T08:00:47;9.10;99.90
9662;DHT22;24982;52.344;12.990;2023-04-03T08:03:50;9.10;99.90
9662;DHT22;24982;52.344;12.990;2023-04-03T08:06:52;8.90;99.90
9662;DHT22;24982;52.344;12.990;2023-04-03T08:09:55;8.90;99.90
9662;DHT22;24982;52.344;12.990;2023-04-03T08:12:57;8.30;99.90
9662;DHT22;24982;52.344;12.990;2023-04-03T08:16:08;8.30;99.90
9662;DHT22;24982;52.344;12.990;2023-04-03T08:19:10;7.90;99.90
9662;DHT22;24982;52.344;12.990;2023-04-03T08:25:18;7.50;99.90
9662;DHT22;24982;52.344;12.990;2023-04-03T08:31:22;6.90;99.90
9662;DHT22;24982;52.344;12.990;2023-04-03T08:34:24;6.70;99.90
9662;DHT22;24982;52.344;12.990;2023-04-03T08:37:26;6.70;99.90
9662;DHT22;24982;52.344;12.990;2023-04-03T08:40:30;6.60;99.90
9662;DHT22;24982;52.344;12.990;2023-04-03T08:43:37;6.50;99.90
9662;DHT22;24982;52.344;12.990;2023-04-03T08:46:47;6.40;99.90
9662;DHT22;24982;52.344;12.990;2023-04-03T08:49:53;6.40;99.90
9662;DHT22;24982;52.344;12.990;2023-04-03T08:52:56;6.30;99.90
9662;DHT22;24982;52.344;12.990;2023-04-03T08:56:04;6.30;99.90
9662;DHT22;24982;52.344;12.990;2023-04-03T08:59:12;6.30;99.90
9662;DHT22;24982;52.344;12.990;2023-04-03T09:02:24;6.50;99.90
9662;DHT22;24982;52.344;12.990;2023-04-03T09:05:35;6.90;99.90
9662;DHT22;24982;52.344;12.990;2023-04-03T09:08:43;7.10;99.90
9662;DHT22;24982;52.344;12.990;2023-04-03T09:11:55;7.20;99.90
9662;DHT22;24982;52.344;12.990;2023-04-03T09:15:09;7.00;99.90
9662;DHT22;24982;52.344;12.990;2023-04-03T09:18:16;6.70;99.90
9662;DHT22;24982;52.344;12.990;2023-04-03T09:21:25;6.60;99.90
9662;DHT22;24982;52.344;12.990;2023-04-03T09:24:31;6.40;99.90
9662;DHT22;24982;52.344;12.990;2023-04-03T09:27:35;6.30;99.90
9662;DHT22;24982;52.344;12.990;2023-04-03T09:30:38;6.30;99.90
9662;DHT22;24982;52.344;12.990;2023-04-03T09:33:40;6.40;99.90
9662;DHT22;24982;52.344;12.990;2023-04-03T09:36:44;6.60;99.90
9662;DHT22;24982;52.344;12.990;2023-04-03T09:39:51;6.70;99.90
9662;DHT22;24982;52.344;12.990;2023-04-03T09:42:56;6.80;99.90
9662;DHT22;24982;52.344;12.990;2023-04-03T09:46:18;7.10;99.90
9662;DHT22;24982;52.344;12.990;2023-04-03T09:49:20;7.40;99.90
9662;DHT22;24982;52.344;12.990;2023-04-03T09:55:27;7.60;99.90
9662;DHT22;24982;52.344;12.990;2023-04-03T09:58:33;7.60;99.90
9662;DHT22;24982;52.344;12.990;2023-04-03T10:01:38;7.60;99.90
9662;DHT22;24982;52.344;12.990;2023-04-03T10:04:41;7.60;99.90
9662;DHT22;24982;52.344;12.990;2023-04-03T10:07:44;7.70;99.90
9662;DHT22;24982;52.344;12.990;2023-04-03T10:10:47;7.70;99.90
9662;DHT22;24982;52.344;12.990;2023-04-03T10:13:53;7.70;99.90
9662;DHT22;24982;52.344;12.990;2023-04-03T10:17:02;7.70;99.90
9662;DHT22;24982;52.344;12.990;2023-04-03T10:20:16;7.70;99.90
9662;DHT22;24982;52.344;12.990;2023-04-03T10:23:27;7.70;99.90
9662;DHT22;24982;52.344;12.990;2023-04-03T10:26:39;7.70;99.90
9662;DHT22;24982;52.344;12.990;2023-04-03T10:29:48;7.70;99.90
9662;DHT22;24982;52.344;12.990;2023-04-03T10:33:00;7.80;99.90
9662;DHT22;24982;52.344;12.990;2023-04-03T10:39:19;8.70;99.90
9662;DHT22;24982;52.344;12.990;2023-04-03T10:42:28;8.70;99.50
9662;DHT22;24982;52.344;12.990;2023-04-03T10:45:49;8.50;99.30
9662;DHT22;24982;52.344;12.990;2023-04-03T10:49:03;8.60;99.90
9662;DHT22;24982;52.344;12.990;2023-04-03T10:52:11;8.50;99.30
9662;DHT22;24982;52.344;12.990;2023-04-03T10:55:24;8.50;99.50
9662;DHT22;24982;52.344;12.990;2023-04-03T10:58:38;8.50;99.30
9662;DHT22;24982;52.344;12.990;2023-04-03T11:01:45;9.00;98.50
9662;DHT22;24982;52.344;12.990;2023-04-03T11:04:51;9.20;98.70
9662;DHT22;24982;52.344;12.990;2023-04-03T11:07:55;9.60;99.30
9662;DHT22;24982;52.344;12.990;2023-04-03T11:11:01;9.40;98.60
9662;DHT22;24982;52.344;12.990;2023-04-03T11:14:09;8.90;99.00
9662;DHT22;24982;52.344;12.990;2023-04-03T11:17:25;8.60;97.20
9662;DHT22;24982;52.344;12.990;2023-04-03T11:20:29;8.40;97.60
9662;DHT22;24982;52.344;12.990;2023-04-03T11:23:36;8.30;98.60
9662;DHT22;24982;52.344;12.990;2023-04-03T11:26:41;8.20;99.70
9662;DHT22;24982;52.344;12.990;2023-04-03T11:29:46;8.00;98.70
9662;DHT22;24982;52.344;12.990;2023-04-03T11:33:05;8.00;99.40
9662;DHT22;24982;52.344;12.990;2023-04-03T11:36:18;7.90;99.90
9662;DHT22;24982;52.344;12.990;2023-04-03T11:39:25;7.80;98.70
9662;DHT22;24982;52.344;12.990;2023-04-03T11:42:33;7.70;98.90
9662;DHT22;24982;52.344;12.990;2023-04-03T11:45:40;7.60;99.50
9662;DHT22;24982;52.344;12.990;2023-04-03T11:48:52;7.50;98.60
9662;DHT22;24982;52.344;12.990;2023-04-03T11:51:57;7.50;98.10
9662;DHT22;24982;52.344;12.990;2023-04-03T11:54:59;8.10;98.20
9662;DHT22;24982;52.344;12.990;2023-04-03T11:58:12;8.50;97.30
9662;DHT22;24982;52.344;12.990;2023-04-03T12:01:43;8.40;96.50
9662;DHT22;24982;52.344;12.990;2023-04-03T12:08:45;9.10;97.70
9662;DHT22;24982;52.344;12.990;2023-04-03T12:17:53;11.50;99.90
9662;DHT22;24982;52.344;12.990;2023-04-03T12:20:59;11.30;99.90
9662;DHT22;24982;52.344;12.990;2023-04-03T12:24:04;10.70;99.90
9662;DHT22;24982;52.344;12.990;2023-04-03T12:33:47;9.10;93.20
9662;DHT22;24982;52.344;12.990;2023-04-03T12:37:03;8.80;94.10
9662;DHT22;24982;52.344;12.990;2023-04-03T12:40:19;8.70;95.80
9662;DHT22;24982;52.344;12.990;2023-04-03T12:43:35;8.40;94.60
9662;DHT22;24982;52.344;12.990;2023-04-03T12:46:44;8.30;95.40
9662;DHT22;24982;52.344;12.990;2023-04-03T12:49:49;8.20;95.10
9662;DHT22;24982;52.344;12.990;2023-04-03T12:52:57;8.10;95.00
9662;DHT22;24982;52.344;12.990;2023-04-03T12:56:19;8.00;95.00
9662;DHT22;24982;52.344;12.990;2023-04-03T12:59:25;7.90;95.00
9662;DHT22;24982;52.344;12.990;2023-04-03T13:02:28;7.80;96.30
9662;DHT22;24982;52.344;12.990;2023-04-03T13:05:32;7.90;96.50
9662;DHT22;24982;52.344;12.990;2023-04-03T13:08:35;7.90;98.00
9662;DHT22;24982;52.344;12.990;2023-04-03T13:11:40;8.00;95.90
9662;DHT22;24982;52.344;12.990;2023-04-03T13:14:52;8.00;96.80
9662;DHT22;24982;52.344;12.990;2023-04-03T13:17:54;7.90;95.40
9662;DHT22;24982;52.344;12.990;2023-04-03T13:21:01;7.80;96.10
9662;DHT22;24982;52.344;12.990;2023-04-03T13:24:06;7.60;97.20
9662;DHT22;24982;52.344;12.990;2023-04-03T13:27:11;7.70;96.90
9662;DHT22;24982;52.344;12.990;2023-04-03T13:30:25;7.70;96.60
9662;DHT22;24982;52.344;12.990;2023-04-03T13:33:31;7.60;96.40
9662;DHT22;24982;52.344;12.990;2023-04-03T13:36:35;7.50;96.60
9662;DHT22;24982;52.344;12.990;2023-04-03T13:39:39;7.40;97.70
9662;DHT22;24982;52.344;12.990;2023-04-03T13:42:41;7.30;98.80
9662;DHT22;24982;52.344;12.990;2023-04-03T13:45:55;7.30;98.50
9662;DHT22;24982;52.344;12.990;2023-04-03T13:48:57;7.30;99.00
9662;DHT22;24982;52.344;12.990;2023-04-03T13:52:01;7.30;98.10
9662;DHT22;24982;52.344;12.990;2023-04-03T13:55:17;7.30;98.10
9662;DHT22;24982;52.344;12.990;2023-04-03T14:04:30;8.80;99.90
9662;DHT22;24982;52.344;12.990;2023-04-03T14:10:36;8.30;99.90
9662;DHT22;24982;52.344;12.990;2023-04-03T14:13:38;8.10;99.90
9662;DHT22;24982;52.344;12.990;2023-04-03T14:16:43;7.90;99.90
9662;DHT22;24982;52.344;12.990;2023-04-03T14:19:46;7.80;99.90
9662;DHT22;24982;52.344;12.990;2023-04-03T14:22:49;7.60;99.90
9662;DHT22;24982;52.344;12.990;2023-04-03T14:25:53;7.60;99.90
9662;DHT22;24982;52.344;12.990;2023-04-03T14:28:55;7.50;99.90
9662;DHT22;24982;52.344;12.990;2023-04-03T14:31:57;7.50;99.90
9662;DHT22;24982;52.344;12.990;2023-04-03T14:34:59;7.40;99.90
9662;DHT22;24982;52.344;12.990;2023-04-03T14:38:02;7.30;98.90
9662;DHT22;24982;52.344;12.990;2023-04-03T14:41:05;7.10;99.90
9662;DHT22;24982;52.344;12.990;2023-04-03T14:44:07;7.10;99.90
9662;DHT22;24982;52.344;12.990;2023-04-03T14:47:11;7.10;99.90
9662;DHT22;24982;52.344;12.990;2023-04-03T14:50:17;7.00;99.90
9662;DHT22;24982;52.344;12.990;2023-04-03T14:53:21;7.00;99.90
9662;DHT22;24982;52.344;12.990;2023-04-03T14:56:28;7.00;99.90
9662;DHT22;24982;52.344;12.990;2023-04-03T14:59:31;7.00;99.90
9662;DHT22;24982;52.344;12.990;2023-04-03T15:02:35;6.90;99.90
9662;DHT22;24982;52.344;12.990;2023-04-03T15:05:37;6.90;99.90
9662;DHT22;24982;52.344;12.990;2023-04-03T15:08:40;6.90;99.90
9662;DHT22;24982;52.344;12.990;2023-04-03T15:17:51;6.60;99.90
9662;DHT22;24982;52.344;12.990;2023-04-03T15:20:55;6.60;99.90
9662;DHT22;24982;52.344;12.990;2023-04-03T15:23:57;6.60;99.90
9662;DHT22;24982;52.344;12.990;2023-04-03T15:27:01;6.50;99.90
9662;DHT22;24982;52.344;12.990;2023-04-03T15:30:06;6.50;99.90
9662;DHT22;24982;52.344;12.990;2023-04-03T15:33:08;6.50;99.90
9662;DHT22;24982;52.344;12.990;2023-04-03T15:39:12;6.60;99.90
9662;DHT22;24982;52.344;12.990;2023-04-03T15:42:16;6.60;99.90
9662;DHT22;24982;52.344;12.990;2023-04-03T15:45:18;6.60;99.90
9662;DHT22;24982;52.344;12.990;2023-04-03T15:48:21;6.70;99.90
9662;DHT22;24982;52.344;12.990;2023-04-03T15:51:23;6.70;99.90
9662;DHT22;24982;52.344;12.990;2023-04-03T15:54:25;6.70;99.90
9662;DHT22;24982;52.344;12.990;2023-04-03T15:57:31;6.70;99.90
9662;DHT22;24982;52.344;12.990;2023-04-03T16:00:33;6.60;99.90
9662;DHT22;24982;52.344;12.990;2023-04-03T16:03:35;6.70;99.90
9662;DHT22;24982;52.344;12.990;2023-04-03T16:06:39;6.70;99.90
9662;DHT22;24982;52.344;12.990;2023-04-03T16:09:41;6.60;99.90
9662;DHT22;24982;52.344;12.990;2023-04-03T16:12:45;6.60;99.90
9662;DHT22;24982;52.344;12.990;2023-04-03T16:15:47;6.50;99.90
9662;DHT22;24982;52.344;12.990;2023-04-03T16:18:50;6.50;99.90
9662;DHT22;24982;52.344;12.990;2023-04-03T16:21:53;6.60;99.90
9662;DHT22;24982;52.344;12.990;2023-04-03T16:24:56;6.50;99.90
9662;DHT22;24982;52.344;12.990;2023-04-03T16:27:59;6.40;99.90
9662;DHT22;24982;52.344;12.990;2023-04-03T16:31:01;6.40;99.90
9662;DHT22;24982;52.344;12.990;2023-04-03T16:34:04;6.30;99.90
9662;DHT22;24982;52.344;12.990;2023-04-03T16:37:06;6.40;99.90
9662;DHT22;24982;52.344;12.990;2023-04-03T16:40:09;6.30;99.90
9662;DHT22;24982;52.344;12.990;2023-04-03T16:43:14;6.20;99.90
9662;DHT22;24982;52.344;12.990;2023-04-03T16:46:16;6.20;99.90
9662;DHT22;24982;52.344;12.990;2023-04-03T16:49:18;6.30;99.90
9662;DHT22;24982;52.344;12.990;2023-04-03T16:52:20;6.20;99.90
9662;DHT22;24982;52.344;12.990;2023-04-03T16:55:22;6.20;99.90
9662;DHT22;24982;52.344;12.990;2023-04-03T16:58:26;6.20;99.90
9662;DHT22;24982;52.344;12.990;2023-04-03T17:01:28;6.20;99.90
9662;DHT22;24982;52.344;12.990;2023-04-03T17:04:30;6.30;99.90
9662;DHT22;24982;52.344;12.990;2023-04-03T17:07:32;6.20;99.90
9662;DHT22;24982;52.344;12.990;2023-04-03T17:10:34;6.10;99.90
9662;DHT22;24982;52.344;12.990;2023-04-03T17:13:37;6.00;99.90
9662;DHT22;24982;52.344;12.990;2023-04-03T17:16:39;6.00;99.90
9662;DHT22;24982;52.344;12.990;2023-04-03T17:19:43;6.00;99.90
9662;DHT22;24982;52.344;12.990;2023-04-03T17:25:47;5.90;99.90
9662;DHT22;24982;52.344;12.990;2023-04-03T17:28:51;5.90;99.90
9662;DHT22;24982;52.344;12.990;2023-04-03T17:31:53;5.90;99.90
9662;DHT22;24982;52.344;12.990;2023-04-03T17:34:55;5.80;99.90
9662;DHT22;24982;52.344;12.990;2023-04-03T17:37:57;5.80;99.90
9662;DHT22;24982;52.344;12.990;2023-04-03T17:41:00;5.80;99.90
9662;DHT22;24982;52.344;12.990;2023-04-03T17:44:04;5.70;99.90
9662;DHT22;24982;52.344;12.990;2023-04-03T17:47:06;5.70;99.90
9662;DHT22;24982;52.344;12.990;2023-04-03T17:50:09;5.70;99.90
9662;DHT22;24982;52.344;12.990;2023-04-03T17:53:11;5.70;99.90
9662;DHT22;24982;52.344;12.990;2023-04-03T17:56:16;5.70;99.90
9662;DHT22;24982;52.344;12.990;2023-04-03T17:59:19;5.80;99.90
9662;DHT22;24982;52.344;12.990;2023-04-03T18:02:22;5.70;99.90
9662;DHT22;24982;52.344;12.990;2023-04-03T18:05:26;5.60;99.90
9662;DHT22;24982;52.344;12.990;2023-04-03T18:08:29;5.70;99.90
9662;DHT22;24982;52.344;12.990;2023-04-03T18:11:32;5.60;99.90
9662;DHT22;24982;52.344;12.990;2023-04-03T18:14:36;5.70;99.90
9662;DHT22;24982;52.344;12.990;2023-04-03T18:17:39;5.70;99.90
9662;DHT22;24982;52.344;12.990;2023-04-03T18:20:41;5.80;99.90
9662;DHT22;24982;52.344;12.990;2023-04-03T18:23:46;5.70;99.90
9662;DHT22;24982;52.344;12.990;2023-04-03T18:26:52;5.80;99.90
9662;DHT22;24982;52.344;12.990;2023-04-03T18:30:00;5.50;99.90
9662;DHT22;24982;52.344;12.990;2023-04-03T18:33:03;5.60;99.90
9662;DHT22;24982;52.344;12.990;2023-04-03T18:36:05;5.70;99.90
9662;DHT22;24982;52.344;12.990;2023-04-03T18:39:07;5.60;99.90
9662;DHT22;24982;52.344;12.990;2023-04-03T18:42:12;5.60;99.90
9662;DHT22;24982;52.344;12.990;2023-04-03T18:45:19;5.60;99.90
9662;DHT22;24982;52.344;12.990;2023-04-03T18:48:22;5.60;99.90
9662;DHT22;24982;52.344;12.990;2023-04-03T18:51:24;5.40;99.90
9662;DHT22;24982;52.344;12.990;2023-04-03T18:54:26;5.40;99.90
9662;DHT22;24982;52.344;12.990;2023-04-03T18:57:28;5.30;99.90
9662;DHT22;24982;52.344;12.990;2023-04-03T19:00:32;5.40;99.90
9662;DHT22;24982;52.344;12.990;2023-04-03T19:03:35;5.30;99.90
9662;DHT22;24982;52.344;12.990;2023-04-03T19:06:37;5.40;99.90
9662;DHT22;24982;52.344;12.990;2023-04-03T19:09:39;5.50;99.90
9662;DHT22;24982;52.344;12.990;2023-04-03T19:12:42;5.50;99.90
9662;DHT22;24982;52.344;12.990;2023-04-03T19:15:46;5.40;99.90
9662;DHT22;24982;52.344;12.990;2023-04-03T19:18:48;5.60;99.90
9662;DHT22;24982;52.344;12.990;2023-04-03T19:21:50;5.60;99.90
9662;DHT22;24982;52.344;12.990;2023-04-03T19:24:52;5.50;99.90
9662;DHT22;24982;52.344;12.990;2023-04-03T19:27:54;5.60;99.90
9662;DHT22;24982;52.344;12.990;2023-04-03T19:30:59;5.50;99.90
9662;DHT22;24982;52.344;12.990;2023-04-03T19:34:01;5.40;99.90
9662;DHT22;24982;52.344;12.990;2023-04-03T19:37:04;5.30;99.90
9662;DHT22;24982;52.344;12.990;2023-04-03T19:40:07;5.30;99.90
9662;DHT22;24982;52.344;12.990;2023-04-03T19:43:10;5.40;99.90
9662;DHT22;24982;52.344;12.990;2023-04-03T19:46:13;5.40;99.90
9662;DHT22;24982;52.344;12.990;2023-04-03T19:49:18;5.30;99.90
9662;DHT22;24982;52.344;12.990;2023-04-03T19:52:21;5.30;99.90
9662;DHT22;24982;52.344;12.990;2023-04-03T19:55:23;5.30;99.90
9662;DHT22;24982;52.344;12.990;2023-04-03T19:58:25;5.30;99.90
9662;DHT22;24982;52.344;12.990;2023-04-03T20:01:30;5.20;99.90
9662;DHT22;24982;52.344;12.990;2023-04-03T20:04:34;5.40;99.90
9662;DHT22;24982;52.344;12.990;2023-04-03T20:07:36;5.30;99.90
9662;DHT22;24982;52.344;12.990;2023-04-03T20:10:38;5.20;99.90
9662;DHT22;24982;52.344;12.990;2023-04-03T20:13:40;5.20;99.90
9662;DHT22;24982;52.344;12.990;2023-04-03T20:16:45;5.20;99.90
9662;DHT22;24982;52.344;12.990;2023-04-03T20:19:48;5.20;99.90
9662;DHT22;24982;52.344;12.990;2023-04-03T20:22:50;4.90;99.90
9662;DHT22;24982;52.344;12.990;2023-04-03T20:25:54;5.10;99.90
9662;DHT22;24982;52.344;12.990;2023-04-03T20:28:58;5.00;99.90
9662;DHT22;24982;52.344;12.990;2023-04-03T20:32:01;5.00;99.90
9662;DHT22;24982;52.344;12.990;2023-04-03T20:38:06;4.90;99.90
9662;DHT22;24982;52.344;12.990;2023-04-03T20:41:09;4.90;99.90
9662;DHT22;24982;52.344;12.990;2023-04-03T20:44:11;4.70;99.90
9662;DHT22;24982;52.344;12.990;2023-04-03T20:47:14;4.70;99.90
9662;DHT22;24982;52.344;12.990;2023-04-03T20:50:17;4.70;99.90
9662;DHT22;24982;52.344;12.990;2023-04-03T20:53:21;4.70;99.90
9662;DHT22;24982;52.344;12.990;2023-04-03T20:56:22;4.70;99.90
9662;DHT22;24982;52.344;12.990;2023-04-03T20:59:25;4.60;99.90
9662;DHT22;24982;52.344;12.990;2023-04-03T21:05:34;4.50;99.90
9662;DHT22;24982;52.344;12.990;2023-04-03T21:19:08;4.40;99.90
9662;DHT22;24982;52.344;12.990;2023-04-03T21:22:11;4.50;99.90
9662;DHT22;24982;52.344;12.990;2023-04-03T21:25:14;4.60;99.90
9662;DHT22;24982;52.344;12.990;2023-04-03T21:28:16;4.50;99.90
9662;DHT22;24982;52.344;12.990;2023-04-03T21:31:19;4.50;99.90
9662;DHT22;24982;52.344;12.990;2023-04-03T21:34:24;4.60;99.90
9662;DHT22;24982;52.344;12.990;2023-04-03T21:43:31;4.40;99.90
9662;DHT22;24982;52.344;12.990;2023-04-03T21:46:34;4.40;99.90
9662;DHT22;24982;52.344;12.990;2023-04-03T21:49:37;4.40;99.90
9662;DHT22;24982;52.344;12.990;2023-04-03T21:52:39;4.40;99.90
9662;DHT22;24982;52.344;12.990;2023-04-03T21:55:41;4.40;99.90
9662;DHT22;24982;52.344;12.990;2023-04-03T21:58:52;4.20;99.90
9662;DHT22;24982;52.344;12.990;2023-04-03T22:01:54;4.30;99.90
9662;DHT22;24982;52.344;12.990;2023-04-03T22:23:15;4.10;99.90
9662;DHT22;24982;52.344;12.990;2023-04-03T22:26:17;4.10;99.90
9662;DHT22;24982;52.344;12.990;2023-04-03T22:29:18;4.10;99.90
9662;DHT22;24982;52.344;12.990;2023-04-03T22:32:20;4.10;99.90
9662;DHT22;24982;52.344;12.990;2023-04-03T22:35:24;4.10;99.90
9662;DHT22;24982;52.344;12.990;2023-04-03T22:38:27;4.40;99.90
9662;DHT22;24982;52.344;12.990;2023-04-03T22:41:29;4.20;99.90
9662;DHT22;24982;52.344;12.990;2023-04-03T22:47:33;3.90;99.90
9662;DHT22;24982;52.344;12.990;2023-04-03T22:50:37;3.80;99.90
9662;DHT22;24982;52.344;12.990;2023-04-03T22:56:42;3.70;99.90
9662;DHT22;24982;52.344;12.990;2023-04-03T22:59:44;3.70;99.90
9662;DHT22;24982;52.344;12.990;2023-04-03T23:05:50;3.70;99.90
9662;DHT22;24982;52.344;12.990;2023-04-03T23:11:55;3.50;99.90